Advantage Summer — V7EW8 — position and weather

sailwx.info

Track history (hours):
 
Tides and Currents Weather Stations Pressure Air Temp Water Temp Dewpoint Dewpoint Depression Visibility Wind Speed Wind Dir Waves Ship Positions

Advantage Summer

Last reported at 2017-Oct-23 10:51 UTC. Time now 2017-Nov-21 13:59 UTC.
Position N 32°08' W 117°37'.
Warning: this ship's position is 29 days out of date.

Length 274 m; draft 9.2 m.

Type: Ship. MMSI: 538006307.

Date/timePositionNaut miles runAvg speedWind from/ knotsBaromVisibWave heightAir tempDewpointWater temp
2017-Oct-23 10:51N 32°08' W 117°37'514.5
2017-Oct-23 10:30N 32°13' W 117°39'714.2
2017-Oct-23 10:01N 32°20' W 117°41'612.0
2017-Oct-23 09:30N 32°26' W 117°43'4 8.7
2017-Oct-23 09:01N 32°30' W 117°44'4 8.8
2017-Oct-23 08:30N 32°34' W 117°46'713.4
2017-Oct-23 07:59N 32°41' W 117°49'714.1
2017-Oct-23 07:30N 32°47' W 117°52'1114.1
2017-Oct-23 06:43N 32°57' W 117°56'314.2
2017-Oct-23 06:31N 32°60' W 117°58'914.3
2017-Oct-23 05:53N 33°08' W 118°02'514.5
2017-Oct-23 05:30N 33°13' W 118°04'814.4
2017-Oct-23 04:59N 33°20' W 118°07'611.7
2017-Oct-23 04:30N 33°26' W 118°09'711.8
2017-Oct-23 03:55N 33°32' W 118°12'511.5
2017-Oct-23 03:30N 33°37' W 118°13'611.4
2017-Oct-23 02:58N 33°43' W 118°11'2 0.6
2017-Oct-23 00:18N 33°44' W 118°10'0 0.1
2017-Oct-23 00:00N 33°44' W 118°10'0 0.0
2017-Oct-22 23:30N 33°44' W 118°10'0 0.0
2017-Oct-22 23:00N 33°44' W 118°10'0 0.0
2017-Oct-22 22:30N 33°44' W 118°10'0 0.0
2017-Oct-22 22:00N 33°44' W 118°10'0 0.0
2017-Oct-22 21:30N 33°44' W 118°10'0 0.0
2017-Oct-22 20:48N 33°44' W 118°10'0 0.0
2017-Oct-22 20:30N 33°44' W 118°10'0 0.1
2017-Oct-22 19:30N 33°44' W 118°10'0 0.1
2017-Oct-22 18:54N 33°44' W 118°10'0 0.0
2017-Oct-22 18:30N 33°44' W 118°10'0 0.0
2017-Oct-22 18:00N 33°44' W 118°10'0 0.0
2017-Oct-22 17:24N 33°44' W 118°10'0 0.0
2017-Oct-22 17:00N 33°44' W 118°10'0 0.0
2017-Oct-22 16:30N 33°44' W 118°10'0 0.0
2017-Oct-22 16:00N 33°44' W 118°10'0 0.1
2017-Oct-22 15:30N 33°44' W 118°10'0 0.0
2017-Oct-22 14:54N 33°44' W 118°10'0 0.0
2017-Oct-22 14:30N 33°44' W 118°10'0 0.0
2017-Oct-22 13:24N 33°44' W 118°10'4 1.4
2017-Oct-22 10:54N 33°40' W 118°11'3 8.1
2017-Oct-22 10:31N 33°37' W 118°12'711.2
2017-Oct-22 09:53N 33°36' W 118°20'511.5
2017-Oct-22 09:27N 33°39' W 118°26'511.9
2017-Oct-22 09:01N 33°41' W 118°31'611.7
2017-Oct-22 08:30N 33°44' W 118°37'611.7
2017-Oct-22 08:00N 33°47' W 118°44'612.0
2017-Oct-22 07:30N 33°50' W 118°50'611.8
2017-Oct-22 06:58N 33°53' W 118°56'611.9
2017-Oct-22 06:28N 33°56' W 119°03'711.4
2017-Oct-22 05:53N 33°59' W 119°10'511.5
2017-Oct-22 05:29N 34°01' W 119°14'612.5
2017-Oct-22 05:00N 34°03' W 119°21'712.6
2017-Oct-22 04:27N 34°05' W 119°29'512.4
2017-Oct-22 04:00N 34°07' W 119°36'4 8.0
2017-Oct-22 03:27N 34°08' W 119°41'813.7
2017-Oct-22 02:51N 34°10' W 119°51'513.9
2017-Oct-22 02:30N 34°12' W 119°56'713.6
2017-Oct-22 01:58N 34°13' W 120°05'713.4
2017-Oct-22 01:28N 34°15' W 120°12'613.6
2017-Oct-22 01:00N 34°17' W 120°20'713.6
2017-Oct-22 00:29N 34°19' W 120°28'613.4
2017-Oct-22 00:00N 34°20' W 120°36'713.5
2017-Oct-21 23:28N 34°22' W 120°44'613.4
2017-Oct-21 23:00N 34°24' W 120°51'713.5
2017-Oct-21 22:27N 34°26' W 121°00'613.7
2017-Oct-21 22:00N 34°27' W 121°07'713.1
2017-Oct-21 21:30N 34°28' W 121°15'612.3
2017-Oct-21 21:00N 34°29' W 121°22'2 4.2
2017-Oct-21 20:30N 34°29' W 121°25'5 9.6
2017-Oct-21 20:00N 34°30' W 121°31'713.1
2017-Oct-21 19:30N 34°32' W 121°38'713.3
2017-Oct-21 19:00N 34°33' W 121°46'713.1
2017-Oct-21 18:30N 34°34' W 121°54'612.8
2017-Oct-21 18:00N 34°35' W 122°02'713.2
2017-Oct-21 17:30N 34°37' W 122°10'  
2017-Oct-17 21:59N 48°07' W 125°52'811.7
2017-Oct-17 21:19N 48°12' W 125°43'411.9
2017-Oct-17 21:00N 48°15' W 125°39'611.4
2017-Oct-17 20:29N 48°18' W 125°33'511.4
2017-Oct-17 20:00N 48°22' W 125°27'611.8
2017-Oct-17 19:30N 48°26' W 125°20'611.7
2017-Oct-17 19:00N 48°30' W 125°14'510.5
2017-Oct-17 18:29N 48°32' W 125°06'510.8
2017-Oct-17 18:00N 48°31' W 124°58'510.3
2017-Oct-17 17:30N 48°31' W 124°50'510.2
2017-Oct-17 17:00N 48°30' W 124°43'510.7
2017-Oct-17 16:30N 48°28' W 124°35'611.1
2017-Oct-17 16:00N 48°26' W 124°27'612.1
2017-Oct-17 15:30N 48°24' W 124°19'612.4
2017-Oct-17 15:00N 48°22' W 124°10'712.8
2017-Oct-17 14:30N 48°19' W 124°01'713.4
2017-Oct-17 14:00N 48°17' W 123°52'714.4
2017-Oct-17 13:29N 48°16' W 123°41'714.6
2017-Oct-17 13:00N 48°15' W 123°30'713.2
2017-Oct-17 12:30N 48°10' W 123°23'5 9.6
2017-Oct-17 11:56N 48°11' W 123°15'613.6
2017-Oct-17 11:30N 48°17' W 123°12'713.7
2017-Oct-17 11:00N 48°24' W 123°12'714.0
2017-Oct-17 10:30N 48°31' W 123°13'612.5
2017-Oct-17 10:00N 48°37' W 123°14'611.1
2017-Oct-17 09:29N 48°43' W 123°13'4 7.6
2017-Oct-17 09:00N 48°44' W 123°08'5 9.9
2017-Oct-17 08:30N 48°47' W 123°02'612.4
2017-Oct-17 08:00N 48°51' W 122°54'611.1
2017-Oct-17 07:30N 48°52' W 122°46'0 0.0
2017-Oct-16 06:43N 48°52' W 122°45'0 0.0
2017-Oct-16 06:30N 48°52' W 122°45'0 0.4
2017-Oct-16 06:00N 48°51' W 122°45'2 4.0
2017-Oct-16 05:29N 48°49' W 122°45'612.1
2017-Oct-16 05:00N 48°44' W 122°45'510.8
2017-Oct-16 04:30N 48°39' W 122°40'5 0.6
2017-Oct-15 20:53N 48°37' W 122°34'0 0.2
2017-Oct-15 20:29N 48°37' W 122°34'0 0.2
2017-Oct-15 19:53N 48°37' W 122°34'0 0.0
2017-Oct-15 19:23N 48°37' W 122°34'0 0.1
2017-Oct-15 18:59N 48°37' W 122°34'0 0.1
2017-Oct-15 16:32N 48°37' W 122°34'0 0.0
2017-Oct-15 16:29N 48°37' W 122°34'0 0.0
2017-Oct-15 09:38N 48°37' W 122°34'0 0.1
2017-Oct-15 09:14N 48°37' W 122°34'0 0.2
2017-Oct-15 08:59N 48°37' W 122°34'0 0.0
2017-Oct-15 07:38N 48°37' W 122°34'0 0.0
2017-Oct-15 06:20N 48°37' W 122°34'0 0.0
2017-Oct-15 02:14N 48°37' W 122°34'0 0.0
2017-Oct-15 00:14N 48°37' W 122°34'0 0.1
2017-Oct-14 21:29N 48°37' W 122°34'0 0.0
2017-Oct-14 19:02N 48°37' W 122°34'0 0.0
2017-Oct-14 18:53N 48°37' W 122°34'0 0.1
2017-Oct-14 18:20N 48°37' W 122°34'0 0.1
2017-Oct-14 17:32N 48°37' W 122°34'0 0.0
2017-Oct-14 17:20N 48°37' W 122°34'0 0.1
2017-Oct-14 16:53N 48°37' W 122°34'0 0.0
2017-Oct-14 16:23N 48°37' W 122°34'0 0.1
2017-Oct-14 15:59N 48°37' W 122°34'0 0.1
2017-Oct-14 15:11N 48°37' W 122°34'0 0.1
2017-Oct-14 14:59N 48°37' W 122°34'0 0.0
2017-Oct-14 14:29N 48°37' W 122°34'0 0.1
2017-Oct-14 13:41N 48°37' W 122°34'0 0.1
2017-Oct-14 13:02N 48°37' W 122°34'0 0.1
2017-Oct-14 12:50N 48°37' W 122°34'0 0.1
2017-Oct-14 12:23N 48°37' W 122°34'0 0.0
2017-Oct-14 11:44N 48°37' W 122°34'0 0.3
2017-Oct-14 11:29N 48°37' W 122°34'0 0.0
2017-Oct-14 10:59N 48°37' W 122°34'0 0.0
2017-Oct-14 10:23N 48°37' W 122°34'0 0.0
2017-Oct-14 09:53N 48°37' W 122°34'0 0.0
2017-Oct-14 09:29N 48°37' W 122°34'0 0.0
2017-Oct-14 08:59N 48°37' W 122°34'0 0.1
2017-Oct-14 08:20N 48°37' W 122°34'0 0.0
2017-Oct-14 07:53N 48°37' W 122°34'0 0.0
2017-Oct-14 07:29N 48°37' W 122°34'0 0.0
2017-Oct-14 06:59N 48°37' W 122°34'0 0.1
2017-Oct-14 06:11N 48°37' W 122°34'0 0.2
2017-Oct-14 05:59N 48°37' W 122°34'0 0.1
2017-Oct-14 05:23N 48°37' W 122°34'0 0.1
2017-Oct-14 03:38N 48°37' W 122°34'0 0.0
2017-Oct-13 20:11N 48°37' W 122°34'0 0.0
2017-Oct-13 19:53N 48°37' W 122°34'0 0.0
2017-Oct-13 19:14N 48°37' W 122°34'0 0.0
2017-Oct-13 18:53N 48°37' W 122°34'0 0.1
2017-Oct-13 18:11N 48°37' W 122°34'0 0.1
2017-Oct-13 16:59N 48°37' W 122°34'0 0.1
2017-Oct-13 15:29N 48°37' W 122°34'0 0.1
2017-Oct-13 14:35N 48°37' W 122°34'0 0.3
2017-Oct-13 14:29N 48°37' W 122°34'0 0.2
2017-Oct-13 13:53N 48°37' W 122°34'0 0.2
2017-Oct-13 13:02N 48°37' W 122°34'0 0.1
2017-Oct-13 12:53N 48°37' W 122°34'  
Track history (hours):
 
Tides and Currents Weather Stations Pressure Air Temp Water Temp Dewpoint Dewpoint Depression Visibility Wind Speed Wind Dir Waves Ship Positions

Advantage Summer

Last reported at 2017-Oct-23 10:51 UTC. Time now 2017-Nov-21 13:59 UTC.
Position N 32°08' W 117°37'.
Warning: this ship's position is 29 days out of date.

Length 274 m; draft 9.2 m.

Type: Ship. MMSI: 538006307.

Date/timePositionNaut miles runAvg speedWind from/ knotsBaromVisibWave heightAir tempDewpointWater temp
2017-Oct-23 10:51N 32°08' W 117°37'514.5
2017-Oct-23 10:30N 32°13' W 117°39'714.2
2017-Oct-23 10:01N 32°20' W 117°41'612.0
2017-Oct-23 09:30N 32°26' W 117°43'4 8.7
2017-Oct-23 09:01N 32°30' W 117°44'4 8.8
2017-Oct-23 08:30N 32°34' W 117°46'713.4
2017-Oct-23 07:59N 32°41' W 117°49'714.1
2017-Oct-23 07:30N 32°47' W 117°52'1114.1
2017-Oct-23 06:43N 32°57' W 117°56'314.2
2017-Oct-23 06:31N 32°60' W 117°58'914.3
2017-Oct-23 05:53N 33°08' W 118°02'514.5
2017-Oct-23 05:30N 33°13' W 118°04'814.4
2017-Oct-23 04:59N 33°20' W 118°07'611.7
2017-Oct-23 04:30N 33°26' W 118°09'711.8
2017-Oct-23 03:55N 33°32' W 118°12'511.5
2017-Oct-23 03:30N 33°37' W 118°13'611.4
2017-Oct-23 02:58N 33°43' W 118°11'2 0.6
2017-Oct-23 00:18N 33°44' W 118°10'0 0.1
2017-Oct-23 00:00N 33°44' W 118°10'0 0.0
2017-Oct-22 23:30N 33°44' W 118°10'0 0.0
2017-Oct-22 23:00N 33°44' W 118°10'0 0.0
2017-Oct-22 22:30N 33°44' W 118°10'0 0.0
2017-Oct-22 22:00N 33°44' W 118°10'0 0.0
2017-Oct-22 21:30N 33°44' W 118°10'0 0.0
2017-Oct-22 20:48N 33°44' W 118°10'0 0.0
2017-Oct-22 20:30N 33°44' W 118°10'0 0.1
2017-Oct-22 19:30N 33°44' W 118°10'0 0.1
2017-Oct-22 18:54N 33°44' W 118°10'0 0.0
2017-Oct-22 18:30N 33°44' W 118°10'0 0.0
2017-Oct-22 18:00N 33°44' W 118°10'0 0.0
2017-Oct-22 17:24N 33°44' W 118°10'0 0.0
2017-Oct-22 17:00N 33°44' W 118°10'0 0.0
2017-Oct-22 16:30N 33°44' W 118°10'0 0.0
2017-Oct-22 16:00N 33°44' W 118°10'0 0.1
2017-Oct-22 15:30N 33°44' W 118°10'0 0.0
2017-Oct-22 14:54N 33°44' W 118°10'0 0.0
2017-Oct-22 14:30N 33°44' W 118°10'0 0.0
2017-Oct-22 13:24N 33°44' W 118°10'4 1.4
2017-Oct-22 10:54N 33°40' W 118°11'3 8.1
2017-Oct-22 10:31N 33°37' W 118°12'711.2
2017-Oct-22 09:53N 33°36' W 118°20'511.5
2017-Oct-22 09:27N 33°39' W 118°26'511.9
2017-Oct-22 09:01N 33°41' W 118°31'611.7
2017-Oct-22 08:30N 33°44' W 118°37'611.7
2017-Oct-22 08:00N 33°47' W 118°44'612.0
2017-Oct-22 07:30N 33°50' W 118°50'611.8
2017-Oct-22 06:58N 33°53' W 118°56'611.9
2017-Oct-22 06:28N 33°56' W 119°03'711.4
2017-Oct-22 05:53N 33°59' W 119°10'511.5
2017-Oct-22 05:29N 34°01' W 119°14'612.5
2017-Oct-22 05:00N 34°03' W 119°21'712.6
2017-Oct-22 04:27N 34°05' W 119°29'512.4
2017-Oct-22 04:00N 34°07' W 119°36'4 8.0
2017-Oct-22 03:27N 34°08' W 119°41'813.7
2017-Oct-22 02:51N 34°10' W 119°51'513.9
2017-Oct-22 02:30N 34°12' W 119°56'713.6
2017-Oct-22 01:58N 34°13' W 120°05'713.4
2017-Oct-22 01:28N 34°15' W 120°12'613.6
2017-Oct-22 01:00N 34°17' W 120°20'713.6
2017-Oct-22 00:29N 34°19' W 120°28'613.4
2017-Oct-22 00:00N 34°20' W 120°36'713.5
2017-Oct-21 23:28N 34°22' W 120°44'613.4
2017-Oct-21 23:00N 34°24' W 120°51'713.5
2017-Oct-21 22:27N 34°26' W 121°00'613.7
2017-Oct-21 22:00N 34°27' W 121°07'713.1
2017-Oct-21 21:30N 34°28' W 121°15'612.3
2017-Oct-21 21:00N 34°29' W 121°22'2 4.2
2017-Oct-21 20:30N 34°29' W 121°25'5 9.6
2017-Oct-21 20:00N 34°30' W 121°31'713.1
2017-Oct-21 19:30N 34°32' W 121°38'713.3
2017-Oct-21 19:00N 34°33' W 121°46'713.1
2017-Oct-21 18:30N 34°34' W 121°54'612.8
2017-Oct-21 18:00N 34°35' W 122°02'713.2
2017-Oct-21 17:30N 34°37' W 122°10'  
2017-Oct-17 21:59N 48°07' W 125°52'811.7
2017-Oct-17 21:19N 48°12' W 125°43'411.9
2017-Oct-17 21:00N 48°15' W 125°39'611.4
2017-Oct-17 20:29N 48°18' W 125°33'511.4
2017-Oct-17 20:00N 48°22' W 125°27'611.8
2017-Oct-17 19:30N 48°26' W 125°20'611.7
2017-Oct-17 19:00N 48°30' W 125°14'510.5
2017-Oct-17 18:29N 48°32' W 125°06'510.8
2017-Oct-17 18:00N 48°31' W 124°58'510.3
2017-Oct-17 17:30N 48°31' W 124°50'510.2
2017-Oct-17 17:00N 48°30' W 124°43'510.7
2017-Oct-17 16:30N 48°28' W 124°35'611.1
2017-Oct-17 16:00N 48°26' W 124°27'612.1
2017-Oct-17 15:30N 48°24' W 124°19'612.4
2017-Oct-17 15:00N 48°22' W 124°10'712.8
2017-Oct-17 14:30N 48°19' W 124°01'713.4
2017-Oct-17 14:00N 48°17' W 123°52'714.4
2017-Oct-17 13:29N 48°16' W 123°41'714.6
2017-Oct-17 13:00N 48°15' W 123°30'713.2
2017-Oct-17 12:30N 48°10' W 123°23'5 9.6
2017-Oct-17 11:56N 48°11' W 123°15'613.6
2017-Oct-17 11:30N 48°17' W 123°12'713.7
2017-Oct-17 11:00N 48°24' W 123°12'714.0
2017-Oct-17 10:30N 48°31' W 123°13'612.5
2017-Oct-17 10:00N 48°37' W 123°14'611.1
2017-Oct-17 09:29N 48°43' W 123°13'4 7.6
2017-Oct-17 09:00N 48°44' W 123°08'5 9.9
2017-Oct-17 08:30N 48°47' W 123°02'612.4
2017-Oct-17 08:00N 48°51' W 122°54'611.1
2017-Oct-17 07:30N 48°52' W 122°46'0 0.0
2017-Oct-16 06:43N 48°52' W 122°45'0 0.0
2017-Oct-16 06:30N 48°52' W 122°45'0 0.4
2017-Oct-16 06:00N 48°51' W 122°45'2 4.0
2017-Oct-16 05:29N 48°49' W 122°45'612.1
2017-Oct-16 05:00N 48°44' W 122°45'510.8
2017-Oct-16 04:30N 48°39' W 122°40'5 0.6
2017-Oct-15 20:53N 48°37' W 122°34'0 0.2
2017-Oct-15 20:29N 48°37' W 122°34'0 0.2
2017-Oct-15 19:53N 48°37' W 122°34'0 0.0
2017-Oct-15 19:23N 48°37' W 122°34'0 0.1
2017-Oct-15 18:59N 48°37' W 122°34'0 0.1
2017-Oct-15 16:32N 48°37' W 122°34'0 0.0
2017-Oct-15 16:29N 48°37' W 122°34'0 0.0
2017-Oct-15 09:38N 48°37' W 122°34'0 0.1
2017-Oct-15 09:14N 48°37' W 122°34'0 0.2
2017-Oct-15 08:59N 48°37' W 122°34'0 0.0
2017-Oct-15 07:38N 48°37' W 122°34'0 0.0
2017-Oct-15 06:20N 48°37' W 122°34'0 0.0
2017-Oct-15 02:14N 48°37' W 122°34'0 0.0
2017-Oct-15 00:14N 48°37' W 122°34'0 0.1
2017-Oct-14 21:29N 48°37' W 122°34'0 0.0
2017-Oct-14 19:02N 48°37' W 122°34'0 0.0
2017-Oct-14 18:53N 48°37' W 122°34'0 0.1
2017-Oct-14 18:20N 48°37' W 122°34'0 0.1
2017-Oct-14 17:32N 48°37' W 122°34'0 0.0
2017-Oct-14 17:20N 48°37' W 122°34'0 0.1
2017-Oct-14 16:53N 48°37' W 122°34'0 0.0
2017-Oct-14 16:23N 48°37' W 122°34'0 0.1
2017-Oct-14 15:59N 48°37' W 122°34'0 0.1
2017-Oct-14 15:11N 48°37' W 122°34'0 0.1
2017-Oct-14 14:59N 48°37' W 122°34'0 0.0
2017-Oct-14 14:29N 48°37' W 122°34'0 0.1
2017-Oct-14 13:41N 48°37' W 122°34'0 0.1
2017-Oct-14 13:02N 48°37' W 122°34'0 0.1
2017-Oct-14 12:50N 48°37' W 122°34'0 0.1
2017-Oct-14 12:23N 48°37' W 122°34'0 0.0
2017-Oct-14 11:44N 48°37' W 122°34'0 0.3
2017-Oct-14 11:29N 48°37' W 122°34'0 0.0
2017-Oct-14 10:59N 48°37' W 122°34'0 0.0
2017-Oct-14 10:23N 48°37' W 122°34'0 0.0
2017-Oct-14 09:53N 48°37' W 122°34'0 0.0
2017-Oct-14 09:29N 48°37' W 122°34'0 0.0
2017-Oct-14 08:59N 48°37' W 122°34'0 0.1
2017-Oct-14 08:20N 48°37' W 122°34'0 0.0
2017-Oct-14 07:53N 48°37' W 122°34'0 0.0
2017-Oct-14 07:29N 48°37' W 122°34'0 0.0
2017-Oct-14 06:59N 48°37' W 122°34'0 0.1
2017-Oct-14 06:11N 48°37' W 122°34'0 0.2
2017-Oct-14 05:59N 48°37' W 122°34'0 0.1
2017-Oct-14 05:23N 48°37' W 122°34'0 0.1
2017-Oct-14 03:38N 48°37' W 122°34'0 0.0
2017-Oct-13 20:11N 48°37' W 122°34'0 0.0
2017-Oct-13 19:53N 48°37' W 122°34'0 0.0
2017-Oct-13 19:14N 48°37' W 122°34'0 0.0
2017-Oct-13 18:53N 48°37' W 122°34'0 0.1
2017-Oct-13 18:11N 48°37' W 122°34'0 0.1
2017-Oct-13 16:59N 48°37' W 122°34'0 0.1
2017-Oct-13 15:29N 48°37' W 122°34'0 0.1
2017-Oct-13 14:35N 48°37' W 122°34'0 0.3
2017-Oct-13 14:29N 48°37' W 122°34'0 0.2
2017-Oct-13 13:53N 48°37' W 122°34'0 0.2
2017-Oct-13 13:02N 48°37' W 122°34'0 0.1
2017-Oct-13 12:53N 48°37' W 122°34'  

Dump ship's entire track history